Terminal Aerodrome Forecast
Issued by NWS Shreveport, LA

Home | Current Version | Previous Version | Text Only | Print | Product List | Glossary On
Versions: 1 2 3 4 5 6 7 8 9 10 11 12 13 14 15 16
177
FTUS44 KSHV 251140
TAFELD
TAF
KELD 251140Z 2512/2612 00000KT P6SM SCT070 SCT150 SCT250
     FM251400 VRB03KT P6SM SCT010 SCT070 SCT150
     FM251600 VRB04KT P6SM SCT025 SCT150 BKN250
     FM251800 08006KT P6SM SCT040 SCT150 BKN250
     FM260100 06003KT P6SM SCT250
     FM260600 00000KT P6SM SKC=

USA.gov is the U.S. government's official web portal to all federal, state and local government web resources and services.